Time;durP1;ratioP1;P1;durP2;ratioP2;P2;SDS_P1;SDS_P2;PMS_P1;PMS_P2;Temp;Humidity;BMP_temperature;BMP_pressure;BME280_temperature;BME280_humidity;BME280_pressure;Samples;Min_cycle;Max_cycle;Signal;HPM_P1;HPM_P2
2022/08/11 00:01:19;;;;;;;4.90;3.08;;;;;;;16.97;47.46;94300.66;5002268;28;20076;-69
2022/08/11 00:03:53;;;;;;;4.82;3.30;;;;;;;16.97;47.70;94283.25;5014651;28;20050;-68
2022/08/11 00:06:26;;;;;;;4.93;3.17;;;;;;;17.02;47.92;94295.75;5008078;28;20115;-69
2022/08/11 00:08:54;;;;;;;5.55;3.00;;;;;;;17.02;47.22;94290.22;5009220;28;20056;-66
2022/08/11 00:11:30;;;;;;;6.72;3.20;;;;;;;17.00;47.42;94282.34;5007301;28;20055;-67
2022/08/11 00:13:58;;;;;;;6.35;3.20;;;;;;;17.00;47.38;94287.09;5008572;28;20064;-67
2022/08/11 00:16:25;;;;;;;5.32;3.20;;;;;;;16.95;47.68;94282.91;5009273;28;20038;-68
2022/08/11 00:18:55;;;;;;;5.10;3.27;;;;;;;16.89;47.67;94281.94;5008509;28;20050;-68
2022/08/11 00:21:24;;;;;;;5.80;3.40;;;;;;;16.84;48.23;94279.72;5009154;28;20046;-67
2022/08/11 00:24:11;;;;;;;5.22;3.35;;;;;;;16.91;47.44;94277.50;5008578;28;20049;-67
2022/08/11 00:26:38;;;;;;;30.83;17.23;;;;;;;16.94;47.90;94268.28;5008259;28;20045;-67
2022/08/11 00:29:09;;;;;;;6.63;3.60;;;;;;;16.88;47.87;94280.38;5008188;28;20058;-68
2022/08/11 00:31:37;;;;;;;6.07;3.30;;;;;;;16.79;48.25;94283.81;4995318;28;20042;-68
2022/08/11 00:34:10;;;;;;;5.68;3.50;;;;;;;16.84;48.04;94277.75;5013877;28;20057;-68
2022/08/11 00:36:44;;;;;;;5.60;3.08;;;;;;;16.96;47.49;94279.69;5013807;28;20056;-68
2022/08/11 00:39:12;;;;;;;6.35;3.30;;;;;;;17.01;47.50;94278.34;5008548;28;20072;-68
2022/08/11 00:41:54;;;;;;;5.03;3.10;;;;;;;17.05;47.56;94272.69;5008136;28;20045;-67
2022/08/11 00:45:00;;;;;;;7.83;3.30;;;;;;;17.02;47.67;94288.19;5006818;28;20546;-69
2022/08/11 00:47:30;;;;;;;5.70;3.28;;;;;;;16.89;48.77;94268.84;5005405;28;20771;-68
2022/08/11 00:50:06;;;;;;;5.15;3.30;;;;;;;16.87;48.11;94268.53;5005233;28;20038;-72
2022/08/11 00:52:43;;;;;;;6.40;3.47;;;;;;;16.80;48.26;94265.94;5002734;28;20103;-67
2022/08/11 00:55:35;;;;;;;4.85;3.40;;;;;;;16.75;48.60;94266.53;5007914;28;20038;-68
2022/08/11 00:58:34;;;;;;;5.10;3.30;;;;;;;16.80;48.22;94265.94;5007830;28;20056;-68
2022/08/11 01:01:14;;;;;;;5.63;3.50;;;;;;;16.73;48.91;94255.13;5002024;28;20137;-70
2022/08/11 01:04:03;;;;;;;5.78;3.35;;;;;;;16.73;48.65;94258.66;5010631;28;20422;-69
2022/08/11 01:06:48;;;;;;;5.13;3.38;;;;;;;16.75;49.05;94260.97;5007588;28;20111;-68
2022/08/11 01:09:45;;;;;;;5.47;3.20;;;;;;;16.75;49.34;94263.75;5007969;28;20060;-68
2022/08/11 01:12:18;;;;;;;4.60;3.10;;;;;;;16.70;49.09;94267.09;5007753;28;20048;-70
2022/08/11 01:15:07;;;;;;;6.35;3.20;;;;;;;16.62;49.36;94263.00;5008625;28;20044;-68
2022/08/11 01:18:11;;;;;;;4.47;3.13;;;;;;;16.56;49.37;94263.56;5007099;28;20776;-68
2022/08/11 01:21:13;;;;;;;4.43;3.22;;;;;;;16.58;49.35;94266.69;5007292;28;20324;-68
2022/08/11 01:24:23;;;;;;;5.35;3.40;;;;;;;16.57;49.77;94258.81;5007769;28;20042;-68
2022/08/11 01:27:02;;;;;;;6.20;3.60;;;;;;;16.53;49.82;94260.91;5007008;28;20070;-67
2022/08/11 01:29:50;;;;;;;6.97;3.60;;;;;;;16.60;49.49;94260.69;4997561;28;20577;-69
2022/08/11 01:32:28;;;;;;;6.88;3.22;;;;;;;16.53;50.24;94256.16;4967874;28;22171;-70
2022/08/11 01:35:27;;;;;;;6.40;3.63;;;;;;;16.57;50.29;94258.81;4980386;28;20043;-69
2022/08/11 01:38:18;;;;;;;4.90;3.50;;;;;;;16.58;50.08;94257.59;4968759;28;20048;-69
2022/08/11 01:41:04;;;;;;;14.93;7.50;;;;;;;16.60;50.44;94251.59;4968306;28;20061;-68
2022/08/11 01:47:07;;;;;;;6.90;3.60;;;;;;;16.50;50.49;94253.47;4980389;28;20048;-70
2022/08/11 01:49:42;;;;;;;5.22;3.30;;;;;;;16.23;51.18;94254.75;4981932;28;21806;-67
2022/08/11 01:52:39;;;;;;;6.28;3.63;;;;;;;16.04;51.92;94258.53;4974530;28;21627;-68
2022/08/11 01:55:45;;;;;;;6.37;3.33;;;;;;;16.12;51.53;94265.38;4977461;28;20121;-68
2022/08/11 01:58:49;;;;;;;6.38;3.80;;;;;;;16.12;51.58;94263.38;4985109;28;20048;-68
2022/08/11 02:01:31;;;;;;;5.78;3.60;;;;;;;16.13;51.66;94267.69;4996917;28;21795;-68
2022/08/11 02:04:31;;;;;;;6.03;3.65;;;;;;;16.17;51.58;94270.34;4986086;28;20096;-68
2022/08/11 02:07:25;;;;;;;5.75;3.65;;;;;;;16.24;51.43;94277.66;4973318;28;20039;-68
2022/08/11 02:13:53;;;;;;;5.85;3.80;;;;;;;16.20;51.70;94263.94;4979994;28;20810;-68
2022/08/11 02:16:54;;;;;;;5.00;3.60;;;;;;;16.12;51.72;94266.16;4994721;28;20045;-71
2022/08/11 02:25:36;;;;;;;5.33;3.53;;;;;;;16.00;52.40;94257.84;4971186;28;20073;-70
2022/08/11 02:28:27;;;;;;;5.40;3.60;;;;;;;15.95;52.45;94246.09;4971058;28;20054;-67
2022/08/11 02:34:41;;;;;;;6.68;3.80;;;;;;;15.96;52.64;94261.50;4979907;28;20363;-68
2022/08/11 02:37:37;;;;;;;6.43;4.03;;;;;;;15.95;52.76;94254.41;4988164;28;20059;-68
2022/08/11 02:40:14;;;;;;;5.73;3.90;;;;;;;15.92;52.68;94243.47;4971004;28;20211;-69
2022/08/11 02:42:44;;;;;;;7.70;3.92;;;;;;;15.95;52.89;94242.56;4971971;28;20354;-69
2022/08/11 02:45:11;;;;;;;23.23;13.90;;;;;;;15.89;52.96;94247.09;4985211;28;20050;-66
2022/08/11 02:50:51;;;;;;;8.57;4.25;;;;;;;15.82;53.31;94253.63;4985291;28;20091;-68
2022/08/11 02:53:45;;;;;;;8.43;4.00;;;;;;;15.76;53.56;94244.34;4985020;28;20926;-68
2022/08/11 02:56:43;;;;;;;5.30;3.90;;;;;;;15.75;53.58;94238.03;4985647;28;20899;-68
2022/08/11 03:02:30;;;;;;;7.20;4.00;;;;;;;15.58;54.36;94244.84;4979765;28;20061;-69
2022/08/11 03:05:19;;;;;;;6.90;4.07;;;;;;;15.47;54.80;94247.88;4980710;28;20046;-69
2022/08/11 03:08:01;;;;;;;6.80;4.20;;;;;;;15.67;54.16;94233.88;4971854;28;20061;-69
2022/08/11 03:10:35;;;;;;;6.22;4.10;;;;;;;15.68;53.89;94249.28;4970475;28;20724;-69
2022/08/11 03:16:44;;;;;;;7.18;4.00;;;;;;;15.38;55.13;94250.53;4985204;28;20455;-69
2022/08/11 03:19:17;;;;;;;6.47;3.95;;;;;;;14.98;56.27;94242.53;4970900;28;20495;-68
2022/08/11 03:21:56;;;;;;;5.60;3.90;;;;;;;14.85;56.56;94241.72;4971158;28;20042;-68
2022/08/11 03:25:01;;;;;;;7.25;4.10;;;;;;;14.62;57.46;94243.47;4970505;28;20039;-68
2022/08/11 03:27:51;;;;;;;6.00;4.13;;;;;;;14.72;57.08;94242.44;4970476;28;20046;-67
2022/08/11 03:30:38;;;;;;;5.38;3.88;;;;;;;14.80;56.95;94245.78;4979592;28;20470;-68
2022/08/11 03:36:21;;;;;;;5.67;4.10;;;;;;;14.75;57.24;94249.84;4970581;28;20069;-73
2022/08/11 03:39:04;;;;;;;6.40;4.20;;;;;;;14.94;56.55;94247.41;4970847;28;20049;-68
2022/08/11 03:41:46;;;;;;;7.55;4.40;;;;;;;15.08;56.57;94241.47;4969904;28;21504;-66
2022/08/11 03:44:54;;;;;;;7.88;4.70;;;;;;;15.03;56.52;94247.56;4970482;28;20336;-68
2022/08/11 03:48:08;;;;;;;7.07;4.63;;;;;;;14.71;57.73;94240.13;4969636;28;21694;-68
2022/08/11 03:50:54;;;;;;;6.20;4.03;;;;;;;14.98;56.57;94248.06;4973508;28;20089;-68
2022/08/11 03:53:55;;;;;;;7.07;3.92;;;;;;;15.08;56.34;94240.72;4983496;28;20846;-69
2022/08/11 03:57:00;;;;;;;6.38;4.53;;;;;;;15.14;56.10;94245.25;4969648;28;21682;-67
2022/08/11 04:00:02;;;;;;;6.93;4.22;;;;;;;15.18;55.81;94245.94;4968015;28;20915;-67
2022/08/11 04:02:56;;;;;;;6.50;4.13;;;;;;;15.25;55.43;94241.41;4950261;28;20779;-69
2022/08/11 04:05:33;;;;;;;5.77;4.00;;;;;;;15.20;55.58;94251.03;4988674;28;20446;-67
2022/08/11 04:08:03;;;;;;;5.80;4.10;;;;;;;15.14;55.92;94256.31;4978029;28;20049;-66
2022/08/11 04:10:41;;;;;;;7.85;4.10;;;;;;;15.10;56.02;94244.59;4970454;28;20081;-68
2022/08/11 04:13:18;;;;;;;5.55;3.97;;;;;;;15.10;55.96;94254.88;4970192;28;20055;-68
2022/08/11 04:16:03;;;;;;;7.35;4.10;;;;;;;15.15;56.15;94259.84;4980624;28;20070;-69
2022/08/11 04:18:40;;;;;;;6.90;4.40;;;;;;;15.22;55.52;94251.38;4988347;28;20684;-67
2022/08/11 04:21:35;;;;;;;6.72;4.25;;;;;;;15.23;55.41;94252.13;4987940;28;20157;-67
2022/08/11 04:24:04;;;;;;;7.53;4.50;;;;;;;15.31;55.22;94247.97;4983068;28;20068;-67
2022/08/11 04:27:00;;;;;;;9.52;4.80;;;;;;;15.29;55.43;94245.66;4969372;28;20042;-65
2022/08/11 04:29:59;;;;;;;9.18;4.60;;;;;;;15.35;55.12;94251.41;4968766;28;20043;-66
2022/08/11 04:32:58;;;;;;;7.87;4.33;;;;;;;15.31;54.99;94245.19;4982956;28;20056;-67
2022/08/11 04:35:31;;;;;;;6.72;4.40;;;;;;;15.36;54.95;94233.59;4985844;28;20698;-69
2022/08/11 04:38:32;;;;;;;6.80;4.32;;;;;;;15.44;54.79;94232.19;4970988;28;20050;-67
2022/08/11 04:41:31;;;;;;;6.43;4.15;;;;;;;15.48;54.73;94238.38;4969372;28;20039;-68
2022/08/11 04:44:34;;;;;;;8.65;4.35;;;;;;;15.42;54.79;94242.91;4969500;28;20069;-67
2022/08/11 04:47:06;;;;;;;6.33;4.10;;;;;;;15.47;54.76;94249.88;4971347;28;20039;-67
2022/08/11 05:02:37;;;;;;;7.17;3.90;;;;;;;15.55;54.32;94243.72;4977275;28;20046;-67
2022/08/11 05:05:32;;;;;;;6.32;3.90;;;;;;;15.61;54.24;94243.16;4971248;28;20121;-67
2022/08/11 05:08:18;;;;;;;7.05;4.55;;;;;;;15.60;54.37;94247.94;4969075;28;20054;-66
2022/08/11 05:11:20;;;;;;;7.05;4.10;;;;;;;15.61;54.28;94246.69;4969545;28;20439;-67
2022/08/11 05:37:12;;;;;;;7.90;4.07;;;;;;;16.36;53.13;94243.66;4982840;28;20065;-69
2022/08/11 05:57:26;;;;;;;7.32;3.95;;;;;;;16.38;53.25;94236.47;4985975;28;20039;-67
2022/08/11 06:00:14;;;;;;;7.13;4.20;;;;;;;16.49;54.14;94232.56;4972325;28;20042;-66
2022/08/11 06:02:43;;;;;;;7.53;4.40;;;;;;;16.45;54.42;94240.22;4991626;28;20034;-68
2022/08/11 06:05:11;;;;;;;5.88;4.03;;;;;;;16.67;54.00;94238.28;4988103;28;20108;-72
2022/08/11 06:07:38;;;;;;;9.20;4.25;;;;;;;16.81;52.65;94231.50;4980842;28;20054;-67
2022/08/11 06:10:36;;;;;;;5.93;3.90;;;;;;;18.79;48.69;94235.16;4984185;28;20112;-68
2022/08/11 06:13:05;;;;;;;7.97;4.00;;;;;;;22.61;39.62;94230.09;4972512;28;20039;-69
2022/08/11 06:15:42;;;;;;;7.47;3.80;;;;;;;25.02;35.06;94230.94;4972814;28;20400;-67
2022/08/11 06:18:11;;;;;;;6.32;3.85;;;;;;;26.17;32.26;94223.13;4979630;28;20049;-67
2022/08/11 06:20:48;;;;;;;4.72;3.47;;;;;;;27.88;29.07;94217.28;4992482;28;20193;-67
2022/08/11 06:23:21;;;;;;;5.78;3.67;;;;;;;25.07;32.95;94223.81;4972319;28;20116;-69
2022/08/11 06:25:53;;;;;;;5.70;3.73;;;;;;;26.29;30.39;94221.84;4972964;28;20043;-67
2022/08/11 06:28:31;;;;;;;4.90;3.47;;;;;;;27.81;29.21;94222.69;4971347;28;20443;-69
2022/08/11 06:30:59;;;;;;;6.40;3.35;;;;;;;28.40;27.79;94223.34;4982274;28;20050;-69
2022/08/11 06:33:47;;;;;;;5.90;3.53;;;;;;;28.64;27.69;94222.66;4975343;28;20385;-69
2022/08/11 06:36:37;;;;;;;4.47;3.22;;;;;;;31.11;24.69;94214.09;4991581;28;20042;-68
2022/08/11 06:39:27;;;;;;;6.50;3.43;;;;;;;29.40;26.59;94222.88;4954186;28;20047;-69
2022/08/11 06:42:00;;;;;;;7.38;3.10;;;;;;;30.67;24.87;94217.97;4972069;28;20558;-68
2022/08/11 06:44:31;;;;;;;4.85;3.00;;;;;;;30.78;24.57;94217.00;4972139;28;20536;-69
2022/08/11 06:47:09;;;;;;;5.35;3.10;;;;;;;30.59;24.89;94214.25;4971839;28;20050;-72
2022/08/11 06:52:31;;;;;;;5.67;3.00;;;;;;;32.48;22.92;94213.50;4971368;28;20758;-68
2022/08/11 06:55:14;;;;;;;4.20;2.90;;;;;;;33.97;20.99;94219.06;4971893;28;20121;-68
2022/08/11 07:00:53;;;;;;;7.78;3.17;;;;;;;31.02;24.17;94223.81;4976504;28;20487;-69
2022/08/11 07:03:21;;;;;;;6.53;3.10;;;;;;;31.90;23.48;94218.19;4989818;28;20605;-69
2022/08/11 07:05:52;;;;;;;3.97;2.80;;;;;;;34.93;20.32;94221.72;4988334;28;20054;-69
2022/08/11 07:17:16;;;;;;;5.10;3.08;;;;;;;33.99;20.93;94220.03;4971058;28;20046;-69
2022/08/11 07:31:34;;;;;;;5.78;2.80;;;;;;;31.10;23.84;94215.44;5010268;28;20045;-73
2022/08/11 07:34:17;;;;;;;6.73;3.00;;;;;;;32.33;23.45;94208.44;5012621;28;20044;-68
2022/08/11 07:36:56;;;;;;;3.53;2.75;;;;;;;35.24;19.25;94211.09;5010503;28;20045;-69
2022/08/11 07:39:34;;;;;;;5.20;3.08;;;;;;;35.72;18.97;94208.31;5009404;28;22604;-69
2022/08/11 07:42:07;;;;;;;5.15;2.80;;;;;;;33.16;21.94;94212.56;5009868;28;20038;-68
2022/08/11 07:48:10;;;;;;;4.28;3.03;;;;;;;29.94;25.57;94218.31;5010326;28;20380;-69
2022/08/11 07:52:59;;;;;;;5.32;2.55;;;;;;;36.24;18.57;94221.41;4998243;28;20054;-70
2022/08/11 07:55:26;;;;;;;3.85;2.60;;;;;;;35.08;19.75;94229.53;5009573;28;20046;-69
2022/08/11 08:18:02;;;;;;;4.20;2.80;;;;;;;33.58;21.94;94224.56;5009271;28;20046;-70
2022/08/11 08:20:50;;;;;;;5.25;2.95;;;;;;;33.36;21.64;94220.28;5009728;28;20050;-68
2022/08/11 08:23:34;;;;;;;5.03;2.90;;;;;;;34.21;21.06;94230.00;5008764;28;20830;-71
2022/08/11 08:26:04;;;;;;;5.03;2.92;;;;;;;36.12;18.84;94224.72;5007639;28;20044;-69
2022/08/11 08:28:39;;;;;;;3.50;2.70;;;;;;;36.65;18.62;94217.19;5008904;28;20057;-68
2022/08/11 08:31:06;;;;;;;5.50;2.80;;;;;;;35.14;19.87;94215.81;5007890;28;20053;-70
2022/08/11 08:33:35;;;;;;;6.03;3.03;;;;;;;35.86;19.09;94211.69;5010810;28;20050;-68
2022/08/11 08:36:10;;;;;;;5.32;2.78;;;;;;;34.62;20.26;94216.00;5009268;28;20045;-68
2022/08/11 08:38:39;;;;;;;5.07;2.80;;;;;;;33.47;21.84;94222.06;5007670;28;20049;-69
2022/08/11 08:41:07;;;;;;;4.07;2.80;;;;;;;36.02;18.99;94220.16;5008040;28;20064;-69
2022/08/11 08:43:36;;;;;;;4.80;2.80;;;;;;;33.80;21.02;94226.00;5008949;28;20046;-69
2022/08/11 08:46:19;;;;;;;4.53;2.90;;;;;;;32.33;22.62;94231.16;5008829;28;20471;-69
2022/08/11 08:48:47;;;;;;;5.22;2.72;;;;;;;35.31;19.75;94215.25;5007945;28;20056;-69
2022/08/11 08:51:34;;;;;;;4.30;2.80;;;;;;;36.55;18.75;94202.75;5008590;28;20060;-69
2022/08/11 08:54:26;;;;;;;8.93;2.90;;;;;;;35.51;18.84;94207.78;5006817;28;20640;-69
2022/08/11 08:56:56;;;;;;;4.43;2.70;;;;;;;35.11;19.94;94222.66;5008944;28;20407;-69
2022/08/11 08:59:26;;;;;;;3.63;2.78;;;;;;;37.10;17.64;94205.94;5026333;28;20048;-70
2022/08/11 09:02:12;;;;;;;4.68;2.97;;;;;;;32.95;21.72;94221.88;5014019;28;20509;-69
2022/08/11 09:04:43;;;;;;;7.95;2.85;;;;;;;36.04;18.82;94209.72;5013787;28;20054;-69
2022/08/11 09:07:17;;;;;;;4.00;2.90;;;;;;;34.16;20.54;94221.63;5008560;28;20102;-69
2022/08/11 09:09:49;;;;;;;4.05;2.58;;;;;;;35.27;19.64;94215.63;5008347;28;20103;-69
2022/08/11 09:12:18;;;;;;;4.45;2.85;;;;;;;32.77;22.38;94214.34;5008335;28;20095;-70
2022/08/11 09:15:06;;;;;;;3.90;2.42;;;;;;;35.49;19.38;94221.88;5008232;28;20034;-69
2022/08/11 09:17:39;;;;;;;5.47;3.15;;;;;;;30.44;25.03;94230.97;5008372;28;20115;-69
2022/08/11 09:20:28;;;;;;;4.13;2.90;;;;;;;29.21;26.78;94225.69;5008017;28;20557;-68
2022/08/11 09:28:58;;;;;;;9.38;3.45;;;;;;;30.38;25.63;94218.97;5008042;28;20041;-69
2022/08/11 09:31:29;;;;;;;4.65;3.55;;;;;;;26.64;31.02;94228.22;5008452;28;20068;-70
2022/08/11 09:33:57;;;;;;;4.13;3.00;;;;;;;31.15;24.97;94203.97;5012439;28;20045;-70
2022/08/11 09:42:00;;;;;;;5.13;3.25;;;;;;;27.85;28.74;94235.25;5008200;28;20044;-71
2022/08/11 09:44:47;;;;;;;5.38;3.10;;;;;;;30.33;26.17;94220.59;5008271;28;20048;-71
2022/08/11 09:47:21;;;;;;;3.90;2.90;;;;;;;34.02;21.47;94235.22;5008390;28;20085;-69
2022/08/11 09:49:50;;;;;;;4.10;2.85;;;;;;;30.19;26.21;94233.16;5008624;28;20092;-68
2022/08/11 09:52:18;;;;;;;4.10;3.17;;;;;;;30.40;25.36;94247.50;5007608;28;20738;-68
2022/08/11 09:54:47;;;;;;;6.88;3.42;;;;;;;25.50;33.01;94247.00;5006828;28;20038;-69
2022/08/11 10:00:06;;;;;;;4.37;3.13;;;;;;;32.38;23.93;94221.75;5008164;28;20056;-70
2022/08/11 10:02:42;;;;;;;5.80;3.15;;;;;;;28.86;27.90;94216.00;5017683;28;20049;-68
2022/08/11 10:08:00;;;;;;;4.78;3.10;;;;;;;31.57;24.65;94211.91;5008162;28;20048;-71
2022/08/11 10:10:28;;;;;;;4.07;3.20;;;;;;;28.57;29.18;94226.03;5008336;28;20050;-70
2022/08/11 10:13:03;;;;;;;6.17;3.20;;;;;;;29.97;26.65;94223.69;5027555;28;20488;-70
2022/08/11 10:15:34;;;;;;;4.45;3.53;;;;;;;27.98;29.47;94225.44;5010554;28;20045;-68
2022/08/11 10:20:57;;;;;;;4.20;2.92;;;;;;;32.20;24.11;94209.28;5012087;28;20069;-69
2022/08/11 10:26:51;;;;;;;4.27;2.90;;;;;;;34.25;21.58;94218.22;5010907;28;21068;-70
2022/08/11 10:35:27;;;;;;;4.13;3.00;;;;;;;31.41;24.09;94219.44;5017265;28;20617;-72
2022/08/11 10:37:54;;;;;;;4.38;3.30;;;;;;;28.76;28.33;94221.25;5011179;28;20045;-69
2022/08/11 10:40:38;;;;;;;6.17;3.60;;;;;;;29.37;27.50;94226.78;5010291;28;20100;-69
2022/08/11 10:43:09;;;;;;;4.05;3.30;;;;;;;28.16;28.71;94219.16;5011333;28;20050;-70
2022/08/11 10:48:26;;;;;;;5.93;3.40;;;;;;;31.15;25.11;94206.03;5010306;28;20748;-70
2022/08/11 10:51:13;;;;;;;5.30;3.40;;;;;;;33.20;22.58;94204.44;5010866;28;20049;-67
2022/08/11 10:59:27;;;;;;;6.28;3.38;;;;;;;28.73;27.78;94207.41;4997466;28;20889;-69
2022/08/11 11:01:54;;;;;;;4.63;3.70;;;;;;;27.00;31.13;94222.78;5013629;28;20564;-67
2022/08/11 11:04:32;;;;;;;7.35;3.80;;;;;;;27.72;30.40;94192.75;5020649;28;20040;-68
2022/08/11 11:07:23;;;;;;;6.90;3.90;;;;;;;26.31;31.82;94201.63;5010538;28;20046;-68
2022/08/11 11:09:57;;;;;;;4.80;3.65;;;;;;;27.97;30.23;94195.69;5010657;28;20049;-70
2022/08/11 11:18:18;;;;;;;6.38;4.93;;;;;;;23.74;37.61;94209.81;5010485;28;20049;-69
2022/08/11 11:20:54;;;;;;;6.83;4.60;;;;;;;23.93;36.43;94199.06;5010418;28;20046;-68
2022/08/11 11:23:35;;;;;;;6.30;4.22;;;;;;;25.03;34.86;94206.44;5010022;28;21367;-67
2022/08/11 11:26:30;;;;;;;5.82;4.03;;;;;;;24.05;36.46;94216.75;5010045;28;20052;-69
2022/08/11 11:29:24;;;;;;;5.00;3.95;;;;;;;25.23;34.24;94213.94;5009692;28;20046;-69
2022/08/11 11:31:55;;;;;;;5.95;4.07;;;;;;;25.03;34.29;94209.25;5010391;28;20056;-68
2022/08/11 11:34:56;;;;;;;6.60;4.07;;;;;;;25.23;33.76;94208.34;5013040;28;20925;-68
2022/08/11 11:37:23;;;;;;;4.95;3.55;;;;;;;25.99;32.77;94198.31;5003617;28;20618;-68
2022/08/11 11:39:52;;;;;;;5.35;4.00;;;;;;;25.93;32.55;94206.75;4990529;28;20050;-69
2022/08/11 11:42:20;;;;;;;6.20;4.60;;;;;;;25.27;34.83;94212.47;5002493;28;20654;-68
2022/08/11 11:44:47;;;;;;;7.20;4.20;;;;;;;25.27;34.69;94206.84;5010203;28;20045;-68
2022/08/11 11:47:18;;;;;;;6.60;3.90;;;;;;;25.40;32.88;94216.84;5010065;28;20410;-68
2022/08/11 11:49:48;;;;;;;6.07;4.15;;;;;;;24.89;34.20;94211.75;5010001;28;20044;-68
2022/08/11 11:52:18;;;;;;;6.95;3.85;;;;;;;26.34;31.63;94197.81;5009879;28;20057;-68
2022/08/11 11:54:53;;;;;;;6.78;4.20;;;;;;;26.04;32.12;94201.13;5008998;28;20430;-68
2022/08/11 12:03:05;;;;;;;6.25;4.30;;;;;;;25.34;33.94;94185.91;5021671;28;20067;-68
2022/08/11 12:05:35;;;;;;;7.30;4.10;;;;;;;25.85;33.50;94186.00;4996635;28;20064;-69
2022/08/11 12:08:11;;;;;;;5.05;4.18;;;;;;;25.38;33.58;94180.81;5009544;28;20041;-70
2022/08/11 12:10:44;;;;;;;8.50;4.20;;;;;;;24.87;34.88;94199.47;5009961;28;20045;-68
2022/08/11 12:16:02;;;;;;;5.70;4.00;;;;;;;25.04;33.73;94185.53;5009484;28;20030;-69
2022/08/11 12:18:53;;;;;;;5.38;4.00;;;;;;;25.47;32.02;94171.38;5009376;28;20045;-68
2022/08/11 12:21:21;;;;;;;5.30;3.90;;;;;;;25.34;32.80;94185.91;5008760;28;20037;-69
2022/08/11 12:29:47;;;;;;;5.63;3.90;;;;;;;25.26;32.83;94174.38;4993233;28;20414;-68
2022/08/11 12:32:23;;;;;;;6.85;3.70;;;;;;;25.04;32.17;94174.28;4987162;28;20279;-68
2022/08/11 12:34:50;;;;;;;5.47;3.63;;;;;;;25.58;31.17;94157.34;4993310;28;20046;-68
2022/08/11 12:37:28;;;;;;;8.38;3.97;;;;;;;26.34;31.33;94155.59;4989195;28;20074;-68
2022/08/11 12:46:11;;;;;;;6.75;4.28;;;;;;;25.19;33.04;94165.66;4981704;28;20066;-70
2022/08/11 12:54:55;;;;;;;6.90;4.00;;;;;;;25.99;32.43;94140.00;4980226;28;20611;-68
2022/08/11 13:05:58;;;;;;;5.68;4.00;;;;;;;25.19;31.46;94138.31;4988951;28;20052;-68
2022/08/11 13:08:28;;;;;;;6.77;4.23;;;;;;;25.89;30.83;94144.34;4989495;28;20048;-70
2022/08/11 13:13:45;;;;;;;6.22;3.90;;;;;;;26.02;31.29;94139.00;4989172;28;20507;-68
2022/08/11 13:17:20;;;;;;;8.10;3.90;;;;;;;26.45;30.65;94127.44;4987734;28;20631;-69
2022/08/11 13:19:24;;;;;;;5.32;3.80;;;;;;;26.89;30.12;94125.03;4968880;28;20152;-68
2022/08/11 13:21:51;;;;;;;5.33;3.63;;;;;;;26.35;30.71;94133.84;4969783;28;20053;-67
2022/08/11 13:24:20;;;;;;;8.13;3.85;;;;;;;26.15;31.15;94124.41;4969143;28;20084;-68
2022/08/11 13:26:49;;;;;;;5.80;4.10;;;;;;;25.93;31.56;94127.25;4969758;28;20035;-68
2022/08/11 13:29:21;;;;;;;6.03;3.92;;;;;;;25.30;32.72;94127.16;4969251;28;20044;-68
2022/08/11 13:31:50;;;;;;;6.93;4.00;;;;;;;26.36;31.26;94127.72;4968045;28;20324;-68
2022/08/11 13:34:17;;;;;;;5.10;4.10;;;;;;;26.03;32.44;94106.78;4976102;28;20176;-69
2022/08/11 13:36:49;;;;;;;7.03;3.90;;;;;;;26.01;31.63;94131.06;4988695;28;20046;-68
2022/08/11 13:39:17;;;;;;;7.45;4.20;;;;;;;25.65;31.93;94128.72;4969426;28;20042;-69
2022/08/11 13:41:46;;;;;;;4.97;3.92;;;;;;;25.24;32.61;94126.38;4969563;28;20427;-69
2022/08/11 13:44:16;;;;;;;7.20;4.18;;;;;;;25.69;32.36;94112.38;4980187;28;20042;-68
2022/08/11 13:46:51;;;;;;;6.57;3.90;;;;;;;26.21;31.29;94101.91;4988979;28;20112;-68
2022/08/11 13:49:20;;;;;;;8.05;4.00;;;;;;;26.15;31.33;94106.78;4985492;28;20859;-69
2022/08/11 13:51:48;;;;;;;7.30;4.10;;;;;;;25.75;31.66;94109.56;4986031;28;20093;-68
2022/08/11 13:54:18;;;;;;;6.38;3.90;;;;;;;25.63;32.16;94108.81;4987093;28;20039;-69
2022/08/11 13:56:50;;;;;;;6.30;4.00;;;;;;;26.35;30.72;94097.28;4973204;28;20043;-69
2022/08/11 13:59:21;;;;;;;7.00;4.10;;;;;;;26.29;31.29;94089.59;4972586;28;21024;-69
2022/08/11 14:02:02;;;;;;;5.40;4.03;;;;;;;26.86;30.39;94098.69;4984307;28;20407;-68
2022/08/11 14:04:55;;;;;;;5.28;3.90;;;;;;;26.30;30.73;94091.16;4972048;28;20054;-69
2022/08/11 14:07:26;;;;;;;5.38;3.72;;;;;;;26.06;31.64;94086.09;4972412;28;20034;-69
2022/08/11 14:09:57;;;;;;;7.35;4.05;;;;;;;26.13;31.35;94093.22;4972649;28;20393;-69
2022/08/11 14:15:21;;;;;;;5.43;4.20;;;;;;;26.58;30.85;94081.09;4972725;28;20038;-70
2022/08/11 14:17:54;;;;;;;7.07;4.05;;;;;;;25.08;32.96;94082.91;4974940;28;20132;-69
2022/08/11 14:20:22;;;;;;;5.38;3.80;;;;;;;25.78;32.35;94086.06;4982788;28;21283;-70
2022/08/11 14:23:10;;;;;;;6.72;4.15;;;;;;;25.46;32.38;94079.94;4972701;28;20051;-68
2022/08/11 14:26:22;;;;;;;7.77;4.00;;;;;;;25.82;31.50;94083.00;4973313;28;20039;-69
2022/08/11 14:28:32;;;;;;;7.28;4.13;;;;;;;26.54;30.85;94078.56;4971703;28;21881;-69
2022/08/11 14:31:08;;;;;;;6.68;4.00;;;;;;;26.08;31.43;94077.91;4972576;28;20039;-69
2022/08/11 14:33:36;;;;;;;6.32;4.25;;;;;;;26.06;31.72;94082.50;4974409;28;20066;-71
2022/08/11 14:36:25;;;;;;;4.80;4.07;;;;;;;26.22;31.61;94081.72;4990978;28;21544;-68
2022/08/11 14:38:53;;;;;;;6.30;4.23;;;;;;;26.10;31.31;94083.00;4974110;28;20047;-65
2022/08/11 14:47:17;;;;;;;7.38;4.45;;;;;;;25.91;31.66;94075.09;4989663;28;20042;-70
2022/08/11 14:49:52;;;;;;;5.63;4.55;;;;;;;25.42;32.35;94063.31;4976540;28;20788;-68
2022/08/11 14:52:47;;;;;;;5.80;4.40;;;;;;;26.30;31.07;94067.88;4982644;28;20837;-62
2022/08/11 14:58:01;;;;;;;6.90;4.07;;;;;;;27.10;30.15;94060.63;4978544;28;20736;-67
2022/08/11 15:00:29;;;;;;;6.47;3.97;;;;;;;26.31;31.33;94061.72;4977869;28;20046;-70
2022/08/11 15:03:10;;;;;;;6.25;3.75;;;;;;;26.29;31.14;94067.09;4982661;28;20054;-67
2022/08/11 15:05:43;;;;;;;7.13;4.27;;;;;;;25.40;31.88;94060.25;4979688;28;20041;-67
2022/08/11 15:14:05;;;;;;;6.05;4.38;;;;;;;25.55;32.16;94051.56;4990510;28;20044;-69
2022/08/11 15:19:19;;;;;;;5.50;4.40;;;;;;;26.35;31.05;94058.66;4990061;28;20240;-68
2022/08/11 15:24:35;;;;;;;5.95;4.00;;;;;;;25.78;32.21;94051.59;4984629;28;20722;-70
2022/08/11 15:38:48;;;;;;;5.85;4.13;;;;;;;25.52;32.26;94044.19;4971035;28;20524;-69
2022/08/11 15:47:37;;;;;;;6.20;3.80;;;;;;;25.69;31.33;94042.09;4974231;28;20699;-68
2022/08/11 15:50:12;;;;;;;6.05;3.70;;;;;;;25.88;31.05;94050.03;4990137;28;20042;-69
2022/08/11 15:53:06;;;;;;;6.40;4.00;;;;;;;25.47;32.13;94040.09;4982901;28;20048;-67
2022/08/11 15:55:35;;;;;;;5.93;4.15;;;;;;;25.57;32.23;94043.41;4965782;28;20386;-68
2022/08/11 16:06:43;;;;;;;7.95;4.80;;;;;;;25.30;32.30;94033.69;4970148;28;20841;-68
2022/08/11 16:09:20;;;;;;;8.02;4.30;;;;;;;25.80;31.45;94032.16;4970591;28;20039;-68
2022/08/11 16:11:48;;;;;;;7.15;3.97;;;;;;;26.01;31.02;94032.66;4978739;28;20108;-68
2022/08/11 16:17:06;;;;;;;5.75;4.00;;;;;;;25.29;32.25;94035.75;4969889;28;20049;-68
2022/08/11 16:19:35;;;;;;;10.95;4.30;;;;;;;25.16;32.19;94026.25;4984203;28;20443;-67
2022/08/11 16:22:08;;;;;;;5.75;3.75;;;;;;;25.62;31.76;94020.16;4970280;28;20038;-69
2022/08/11 16:24:38;;;;;;;6.00;4.10;;;;;;;25.77;31.56;94017.06;4970778;28;20042;-69
2022/08/11 16:27:26;;;;;;;5.70;4.00;;;;;;;25.84;31.35;94008.13;4969665;28;20069;-69
2022/08/11 16:29:54;;;;;;;7.07;4.00;;;;;;;25.69;31.25;94008.38;4969374;28;20115;-69
2022/08/11 16:32:24;;;;;;;5.18;3.92;;;;;;;24.92;32.62;94010.63;4970431;28;20046;-69
2022/08/11 16:40:31;;;;;;;6.63;3.90;;;;;;;24.81;32.67;94002.19;4969415;28;21375;-68
2022/08/11 16:48:36;;;;;;;7.10;3.88;;;;;;;25.27;32.25;93992.56;4969207;28;20606;-69
2022/08/11 16:51:06;;;;;;;5.07;3.90;;;;;;;25.35;32.17;94001.25;4969430;28;20054;-68
2022/08/11 16:53:34;;;;;;;7.97;4.03;;;;;;;25.39;32.27;93999.72;4983771;28;20049;-68
2022/08/11 16:56:28;;;;;;;6.18;3.92;;;;;;;25.00;32.80;94000.44;4969055;28;20073;-68
2022/08/11 16:59:14;;;;;;;6.10;3.75;;;;;;;25.22;32.34;94001.78;4969721;28;20051;-69
2022/08/11 17:01:47;;;;;;;5.25;3.80;;;;;;;25.54;32.09;93998.72;4971512;28;20109;-69
2022/08/11 17:13:32;;;;;;;5.68;3.95;;;;;;;24.54;32.67;93998.03;4968881;28;20649;-69
2022/08/11 17:16:05;;;;;;;6.15;3.80;;;;;;;24.56;32.62;94007.47;4969025;28;20460;-67